createdAt,value
2023-01-28T00:01:54.134Z,1.16
2023-01-28T00:04:21.519Z,1.07
2023-01-28T00:06:48.267Z,1.16
2023-01-28T00:09:15.045Z,1.21
2023-01-28T00:11:42.340Z,1.20
2023-01-28T00:14:11.753Z,1.24
2023-01-28T00:16:38.619Z,1.19
2023-01-28T00:19:05.456Z,1.22
2023-01-28T00:21:32.183Z,1.24
2023-01-28T00:23:59.007Z,1.28
2023-01-28T00:26:26.039Z,1.31
2023-01-28T00:28:52.855Z,1.37
2023-01-28T00:31:22.730Z,1.37
2023-01-28T00:33:51.179Z,1.42
2023-01-28T00:36:19.400Z,1.31
2023-01-28T00:38:57.879Z,1.35
2023-01-28T00:41:27.637Z,1.41
2023-01-28T00:43:55.072Z,1.29
2023-01-28T00:46:23.483Z,1.28
2023-01-28T00:48:50.241Z,1.29
2023-01-28T00:51:17.988Z,1.29
2023-01-28T00:53:44.867Z,1.32
2023-01-28T00:56:14.843Z,1.34
2023-01-28T00:58:42.884Z,1.37
2023-01-28T01:01:14.649Z,1.40
2023-01-28T01:03:41.721Z,1.37
2023-01-28T01:06:09.039Z,1.37
2023-01-28T01:08:35.974Z,1.45
2023-01-28T01:11:04.053Z,1.35
2023-01-28T01:13:32.738Z,1.46
2023-01-28T01:16:06.538Z,1.46
2023-01-28T01:18:34.562Z,1.41
2023-01-28T01:21:02.708Z,1.40
2023-01-28T01:23:31.258Z,1.42
2023-01-28T01:25:57.948Z,1.39
2023-01-28T01:28:24.869Z,1.44
2023-01-28T01:31:10.835Z,1.42
2023-01-28T01:33:37.618Z,1.39
2023-01-28T01:36:04.424Z,1.49
2023-01-28T01:38:31.491Z,1.43
2023-01-28T01:41:00.112Z,1.43
2023-01-28T01:43:56.955Z,1.43
2023-01-28T01:46:38.558Z,1.38
2023-01-28T01:49:13.562Z,1.39
2023-01-28T01:51:40.629Z,1.37
2023-01-28T01:54:09.066Z,1.37
2023-01-28T01:56:41.298Z,1.30
2023-01-28T02:01:40.018Z,1.34
2023-01-28T02:06:41.321Z,1.40
2023-01-28T02:09:13.564Z,1.35
2023-01-28T02:11:40.305Z,1.34
2023-01-28T02:14:07.658Z,1.32
2023-01-28T02:16:34.463Z,1.28
2023-01-28T02:19:01.890Z,1.37
2023-01-28T02:21:47.355Z,1.29
2023-01-28T02:24:51.395Z,1.34
2023-01-28T02:27:30.303Z,1.30
2023-01-28T02:30:10.367Z,1.30
2023-01-28T02:32:46.230Z,1.26
2023-01-28T02:35:14.020Z,1.31
2023-01-28T02:37:48.036Z,1.30
2023-01-28T02:40:29.954Z,1.28
2023-01-28T02:42:59.726Z,1.26
2023-01-28T02:45:51.845Z,1.27
2023-01-28T02:48:22.263Z,1.25
2023-01-28T02:51:05.627Z,1.21
2023-01-28T02:53:44.412Z,1.25
2023-01-28T02:56:13.576Z,1.24
2023-01-28T02:59:14.563Z,1.27
2023-01-28T03:01:49.608Z,1.31
2023-01-28T03:04:27.140Z,1.25
2023-01-28T03:06:58.854Z,1.27
2023-01-28T03:09:27.417Z,1.34
2023-01-28T03:12:14.583Z,1.28
2023-01-28T03:15:01.917Z,1.22
2023-01-28T03:18:11.733Z,1.22
2023-01-28T03:27:08.866Z,1.22
2023-01-28T03:29:55.409Z,1.16
2023-01-28T03:32:41.992Z,1.24
2023-01-28T03:35:14.796Z,1.25
2023-01-28T03:37:41.725Z,1.20
2023-01-28T03:40:09.338Z,1.27
2023-01-28T03:42:39.311Z,1.20
2023-01-28T03:45:08.615Z,1.23
2023-01-28T03:47:40.640Z,1.24
2023-01-28T03:50:07.651Z,1.22
2023-01-28T03:52:34.497Z,1.19
2023-01-28T03:57:39.410Z,1.27
2023-01-28T04:00:07.959Z,1.22
2023-01-28T04:02:35.637Z,1.25
2023-01-28T04:05:07.219Z,1.19
2023-01-28T04:07:33.968Z,1.20
2023-01-28T04:10:02.187Z,1.21
2023-01-28T04:12:32.056Z,1.24
2023-01-28T04:15:02.212Z,1.24
2023-01-28T04:17:28.850Z,1.24
2023-01-28T04:19:58.383Z,1.25
2023-01-28T04:22:25.080Z,1.27
2023-01-28T04:24:52.004Z,1.26
2023-01-28T04:27:19.229Z,1.28
2023-01-28T04:29:50.007Z,1.27
2023-01-28T04:32:16.652Z,1.27
2023-01-28T04:34:43.356Z,1.33
2023-01-28T04:37:09.995Z,1.25
2023-01-28T04:39:36.668Z,1.28
2023-01-28T04:42:03.588Z,1.25
2023-01-28T04:44:30.218Z,1.21
2023-01-28T04:46:56.995Z,1.25
2023-01-28T04:49:23.904Z,1.28
2023-01-28T04:51:50.667Z,1.25
2023-01-28T04:54:20.938Z,1.27
2023-01-28T04:56:47.745Z,1.27
2023-01-28T04:59:14.627Z,1.24
2023-01-28T05:01:41.414Z,1.25
2023-01-28T05:04:08.750Z,1.23
2023-01-28T05:06:35.723Z,1.28
2023-01-28T05:09:02.381Z,1.30
2023-01-28T05:11:29.079Z,1.22
2023-01-28T05:13:55.773Z,1.26
2023-01-28T05:16:23.898Z,1.30
2023-01-28T05:18:53.905Z,1.26
2023-01-28T05:21:20.571Z,1.29
2023-01-28T05:23:47.285Z,1.30
2023-01-28T05:26:14.190Z,1.26
2023-01-28T05:28:40.806Z,1.28
2023-01-28T05:31:07.741Z,1.28
2023-01-28T05:33:34.542Z,1.21
2023-01-28T05:36:01.225Z,1.24
2023-01-28T05:38:28.652Z,1.26
2023-01-28T05:40:55.303Z,1.23
2023-01-28T05:43:22.537Z,1.17
2023-01-28T05:45:49.320Z,1.21
2023-01-28T05:48:16.401Z,1.19
2023-01-28T05:50:43.567Z,1.19
2023-01-28T05:53:11.339Z,1.23
2023-01-28T05:55:38.070Z,1.19
2023-01-28T05:58:04.738Z,1.24
2023-01-28T06:00:31.427Z,1.18
2023-01-28T06:02:58.115Z,1.18
2023-01-28T06:05:24.859Z,1.14
2023-01-28T06:07:55.842Z,1.16
2023-01-28T06:10:23.010Z,1.22
2023-01-28T06:12:49.706Z,1.20
2023-01-28T06:15:16.796Z,1.16
2023-01-28T06:17:43.875Z,1.17
2023-01-28T06:20:11.939Z,1.14
2023-01-28T06:22:38.586Z,1.16
2023-01-28T06:25:05.988Z,1.21
2023-01-28T06:27:32.808Z,1.13
2023-01-28T06:29:59.484Z,1.13
2023-01-28T06:32:26.284Z,1.10
2023-01-28T06:34:56.087Z,1.09
2023-01-28T06:37:25.228Z,1.11
2023-01-28T06:39:52.893Z,1.10
2023-01-28T06:42:19.595Z,1.18
2023-01-28T06:44:46.255Z,1.12
2023-01-28T06:47:14.683Z,1.10
2023-01-28T06:49:43.821Z,1.06
2023-01-28T06:52:10.512Z,1.10
2023-01-28T06:54:37.934Z,1.08
2023-01-28T06:57:05.089Z,1.05
2023-01-28T06:59:31.810Z,1.09
2023-01-28T07:01:58.470Z,1.07
2023-01-28T07:04:25.359Z,1.04
2023-01-28T07:06:52.011Z,1.06
2023-01-28T07:09:18.643Z,1.07
2023-01-28T07:11:45.317Z,1.07
2023-01-28T07:14:12.206Z,1.14
2023-01-28T07:16:38.880Z,1.08
2023-01-28T07:19:05.587Z,1.08
2023-01-28T07:21:32.246Z,1.09
2023-01-28T07:23:59.484Z,1.04
2023-01-28T07:26:26.778Z,1.05
2023-01-28T07:28:53.420Z,1.07
2023-01-28T07:31:20.233Z,1.05
2023-01-28T07:33:47.179Z,1.05
2023-01-28T07:36:13.741Z,1.02
2023-01-28T07:38:40.517Z,1.01
2023-01-28T07:41:07.528Z,1.06
2023-01-28T07:43:34.168Z,1.02
2023-01-28T07:46:02.119Z,0.96
2023-01-28T07:48:29.065Z,1.05
2023-01-28T07:51:00.105Z,1.05
2023-01-28T07:53:26.778Z,1.07
2023-01-28T07:55:59.614Z,1.06
2023-01-28T07:58:26.499Z,1.06
2023-01-28T08:00:56.942Z,1.04
2023-01-28T08:03:23.917Z,1.05
2023-01-28T08:05:56.384Z,1.06
2023-01-28T08:08:24.411Z,1.04
2023-01-28T08:10:51.764Z,1.04
2023-01-28T08:13:18.950Z,1.15
2023-01-28T08:15:46.834Z,1.15
2023-01-28T08:18:13.804Z,1.13
2023-01-28T08:20:45.727Z,1.15
2023-01-28T08:23:14.676Z,1.14
2023-01-28T08:25:41.708Z,1.08
2023-01-28T08:28:09.429Z,1.12
2023-01-28T08:30:38.982Z,1.11
2023-01-28T08:33:08.423Z,1.09
2023-01-28T08:35:36.021Z,1.10
2023-01-28T08:38:05.034Z,1.14
2023-01-28T08:40:32.241Z,1.21
2023-01-28T08:42:59.063Z,1.19
2023-01-28T08:45:28.049Z,1.12
2023-01-28T08:48:00.951Z,1.17
2023-01-28T08:50:32.692Z,1.15
2023-01-28T08:53:02.647Z,1.12
2023-01-28T08:55:30.279Z,1.17
2023-01-28T08:57:58.675Z,1.18
2023-01-28T09:00:25.818Z,1.14
2023-01-28T09:02:53.503Z,1.11
2023-01-28T09:05:21.357Z,1.16
2023-01-28T09:07:49.044Z,1.09
2023-01-28T09:10:20.630Z,1.16
2023-01-28T09:12:47.394Z,1.13
2023-01-28T09:15:14.147Z,1.25
2023-01-28T09:17:42.099Z,1.24
2023-01-28T09:20:09.545Z,1.18
2023-01-28T09:22:36.322Z,1.28
2023-01-28T09:25:03.031Z,1.41
2023-01-28T09:27:29.723Z,1.40
2023-01-28T09:29:56.350Z,1.41
2023-01-28T09:32:24.699Z,1.44
2023-01-28T09:34:51.494Z,1.43
2023-01-28T09:37:18.802Z,1.57
2023-01-28T09:39:45.818Z,1.47
2023-01-28T09:42:13.814Z,1.53
2023-01-28T09:45:00.910Z,1.38
2023-01-28T09:47:43.648Z,1.63
2023-01-28T09:50:14.181Z,1.54
2023-01-28T09:52:42.327Z,1.60
2023-01-28T09:55:14.757Z,1.54
2023-01-28T09:57:48.124Z,1.64
2023-01-28T10:00:17.794Z,1.66
2023-01-28T10:03:14.803Z,1.57
2023-01-28T10:06:00.628Z,1.76
2023-01-28T10:09:00.983Z,1.73
2023-01-28T10:11:42.190Z,1.83
2023-01-28T10:14:14.774Z,1.84
2023-01-28T10:16:55.742Z,1.75
2023-01-28T10:19:30.688Z,1.79
2023-01-28T10:22:05.901Z,1.81
2023-01-28T10:24:41.826Z,1.80
2023-01-28T10:27:14.791Z,1.64
2023-01-28T10:29:44.287Z,1.65
2023-01-28T10:32:17.712Z,1.79
2023-01-28T10:34:44.421Z,1.85
2023-01-28T10:37:14.809Z,1.85
2023-01-28T10:39:41.779Z,2.06
2023-01-28T10:42:14.877Z,1.91
2023-01-28T10:44:44.673Z,2.00
2023-01-28T10:47:13.913Z,1.82
2023-01-28T10:49:55.465Z,2.01
2023-01-28T10:52:23.461Z,1.81
2023-01-28T10:55:02.883Z,1.82
2023-01-28T10:57:29.709Z,1.74
2023-01-28T10:59:56.437Z,1.86
2023-01-28T11:02:37.399Z,1.86
2023-01-28T11:05:15.737Z,1.57
2023-01-28T11:07:42.926Z,1.83
2023-01-28T11:10:15.254Z,1.55
2023-01-28T11:12:42.183Z,1.52
2023-01-28T11:15:15.067Z,1.51
2023-01-28T11:17:53.117Z,1.43
2023-01-28T11:20:24.603Z,1.32
2023-01-28T11:22:51.868Z,1.42
2023-01-28T11:25:26.612Z,1.42
2023-01-28T11:27:54.504Z,1.37
2023-01-28T11:30:23.166Z,1.45
2023-01-28T11:33:06.538Z,1.41
2023-01-28T11:35:33.458Z,1.22
2023-01-28T11:38:01.176Z,1.16
2023-01-28T11:40:28.349Z,1.25
2023-01-28T11:42:58.519Z,1.30
2023-01-28T11:46:08.836Z,1.30
2023-01-28T11:49:14.887Z,1.26
2023-01-28T11:51:58.995Z,1.19
2023-01-28T11:54:46.956Z,1.30
2023-01-28T11:57:14.948Z,1.43
2023-01-28T12:00:16.619Z,1.30
2023-01-28T12:03:14.827Z,1.23
2023-01-28T12:05:52.870Z,1.16
2023-01-28T12:08:44.070Z,1.37
2023-01-28T12:11:14.790Z,1.30
2023-01-28T12:14:10.645Z,1.35
2023-01-28T12:17:05.411Z,1.37
2023-01-28T12:20:02.765Z,1.49
2023-01-28T12:22:37.379Z,1.44
2023-01-28T12:25:15.941Z,1.40
2023-01-28T12:27:51.925Z,1.40
2023-01-28T12:30:40.225Z,1.34
2023-01-28T12:33:17.279Z,1.28
2023-01-28T12:36:07.398Z,1.21
2023-01-28T12:38:40.644Z,1.19
2023-01-28T12:41:13.886Z,1.39
2023-01-28T12:43:50.362Z,1.27
2023-01-28T12:46:27.682Z,0.91
2023-01-28T12:49:05.916Z,0.97
2023-01-28T12:51:53.342Z,0.97
2023-01-28T12:54:53.934Z,1.08
2023-01-28T12:57:32.714Z,1.27
2023-01-28T13:03:15.063Z,1.00
2023-01-28T13:05:51.270Z,1.15
2023-01-28T13:08:23.779Z,1.18
2023-01-28T13:10:53.159Z,1.08
2023-01-28T13:13:42.566Z,1.05
2023-01-28T13:16:10.839Z,1.08
2023-01-28T13:18:40.221Z,0.95
2023-01-28T13:21:14.988Z,1.06
2023-01-28T13:23:49.626Z,1.01
2023-01-28T13:26:19.356Z,0.91
2023-01-28T13:28:51.271Z,1.02
2023-01-28T13:31:24.241Z,1.11
2023-01-28T13:33:54.153Z,1.10
2023-01-28T13:36:30.255Z,0.95
2023-01-28T13:39:08.762Z,1.02
2023-01-28T13:41:54.224Z,0.85
2023-01-28T13:44:30.222Z,0.99
2023-01-28T13:47:12.349Z,1.13
2023-01-28T13:49:42.168Z,1.11
2023-01-28T13:52:11.690Z,1.10
2023-01-28T13:54:46.682Z,1.09
2023-01-28T13:57:15.004Z,0.97
2023-01-28T14:03:10.129Z,0.93
2023-01-28T14:05:45.944Z,0.67
2023-01-28T14:08:14.891Z,0.69
2023-01-28T14:11:10.616Z,0.70
2023-01-28T14:13:55.599Z,0.82
2023-01-28T14:16:38.655Z,0.77
2023-01-28T14:19:06.638Z,0.77
2023-01-28T14:21:36.252Z,0.62
2023-01-28T14:24:03.633Z,0.64
2023-01-28T14:26:36.752Z,0.59
2023-01-28T14:29:03.526Z,0.56
2023-01-28T14:31:38.500Z,0.68
2023-01-28T14:34:14.968Z,0.61
2023-01-28T14:36:44.642Z,0.45
2023-01-28T14:39:15.045Z,0.53
2023-01-28T14:41:45.005Z,0.59
2023-01-28T14:44:14.915Z,0.48
2023-01-28T14:46:52.868Z,0.35
2023-01-28T14:49:22.501Z,0.54
2023-01-28T14:54:55.694Z,0.31
2023-01-28T14:57:36.887Z,0.57
2023-01-28T15:00:08.331Z,0.46
2023-01-28T15:02:43.679Z,0.37
2023-01-28T15:05:13.938Z,0.37
2023-01-28T15:07:45.512Z,0.44
2023-01-28T15:10:14.139Z,0.38
2023-01-28T15:12:44.994Z,0.39
2023-01-28T15:17:39.465Z,0.33
2023-01-28T15:20:08.528Z,0.29
2023-01-28T15:22:35.558Z,0.41
2023-01-28T15:25:06.607Z,0.34
2023-01-28T15:27:33.740Z,0.41
2023-01-28T15:30:00.801Z,0.48
2023-01-28T15:32:30.470Z,0.30
2023-01-28T15:35:01.009Z,0.32
2023-01-28T15:37:27.821Z,0.38
2023-01-28T15:40:05.991Z,0.45
2023-01-28T15:42:33.163Z,0.39
2023-01-28T15:45:04.628Z,0.39
2023-01-28T15:47:34.184Z,0.40
2023-01-28T15:50:06.117Z,0.43
2023-01-28T15:52:38.372Z,0.46
2023-01-28T15:55:08.176Z,0.42
2023-01-28T15:57:36.936Z,0.31
2023-01-28T16:00:06.488Z,0.27
2023-01-28T16:02:33.560Z,0.31
2023-01-28T16:05:08.094Z,0.46
2023-01-28T16:07:45.207Z,0.21
2023-01-28T16:10:14.035Z,0.22
2023-01-28T16:12:41.214Z,0.26
2023-01-28T16:15:16.985Z,0.29
2023-01-28T16:17:50.290Z,0.36
2023-01-28T16:20:26.722Z,0.36
2023-01-28T16:23:05.638Z,0.12
2023-01-28T16:25:39.461Z,0.25
2023-01-28T16:28:15.099Z,0.21
2023-01-28T16:30:41.911Z,0.12
2023-01-28T16:33:16.054Z,0.20
2023-01-28T16:36:04.474Z,0.21
2023-01-28T16:38:32.859Z,0.20
2023-01-28T16:40:59.795Z,0.22
2023-01-28T16:43:27.394Z,0.26
2023-01-28T16:45:54.084Z,0.05
2023-01-28T16:48:21.027Z,0.09
2023-01-28T16:50:47.729Z,0.09
2023-01-28T16:53:28.576Z,0.21
2023-01-28T16:55:55.792Z,0.21
2023-01-28T16:58:26.233Z,0.09
2023-01-28T17:00:53.468Z,0.14
2023-01-28T17:03:20.307Z,0.20
2023-01-28T17:05:47.235Z,0.30
2023-01-28T17:08:15.519Z,0.24
2023-01-28T17:10:42.492Z,0.22
2023-01-28T17:13:09.477Z,0.05
2023-01-28T17:15:36.626Z,0.12
2023-01-28T17:18:03.490Z,0.06
2023-01-28T17:20:30.171Z,0.06
2023-01-28T17:22:57.806Z,-0.04
2023-01-28T17:25:24.565Z,-0.05
2023-01-28T17:27:51.293Z,0.04
2023-01-28T17:30:21.035Z,0.07
2023-01-28T17:32:47.775Z,-0.06
2023-01-28T17:35:15.949Z,-0.02
2023-01-28T17:37:43.551Z,-0.05
2023-01-28T17:42:39.509Z,-0.11
2023-01-28T17:45:06.686Z,-0.19
2023-01-28T17:47:33.669Z,-0.09
2023-01-28T17:50:03.124Z,-0.06
2023-01-28T17:52:31.292Z,-0.05
2023-01-28T17:55:02.069Z,-0.01
2023-01-28T18:00:17.167Z,-0.05
2023-01-28T18:02:50.313Z,-0.11
2023-01-28T18:05:17.530Z,-0.03
2023-01-28T18:07:45.949Z,-0.06
2023-01-28T18:10:15.053Z,-0.07
2023-01-28T18:12:41.756Z,-0.08
2023-01-28T18:15:11.152Z,-0.15
2023-01-28T18:17:38.071Z,-0.17
2023-01-28T18:20:07.226Z,-0.15
2023-01-28T18:22:34.286Z,-0.15
2023-01-28T18:25:01.189Z,-0.17
2023-01-28T18:27:28.168Z,-0.07
2023-01-28T18:29:55.107Z,-0.16
2023-01-28T18:32:22.455Z,-0.16
2023-01-28T18:34:49.132Z,-0.16
2023-01-28T18:37:16.070Z,-0.17
2023-01-28T18:39:44.415Z,-0.22
2023-01-28T18:42:11.645Z,-0.15
2023-01-28T18:44:38.454Z,-0.16
2023-01-28T18:47:05.419Z,-0.25
2023-01-28T18:49:32.218Z,-0.24
2023-01-28T18:51:59.573Z,-0.24
2023-01-28T18:54:28.194Z,-0.31
2023-01-28T18:56:55.569Z,-0.30
2023-01-28T18:59:23.017Z,-0.29
2023-01-28T19:01:49.999Z,-0.36
2023-01-28T19:04:19.059Z,-0.36
2023-01-28T19:06:47.562Z,-0.29
2023-01-28T19:09:18.262Z,-0.31
2023-01-28T19:11:45.836Z,-0.29
2023-01-28T19:14:14.479Z,-0.29
2023-01-28T19:16:42.200Z,-0.28
2023-01-28T19:19:12.417Z,-0.32
2023-01-28T19:21:39.495Z,-0.44
2023-01-28T19:24:12.113Z,-0.36
2023-01-28T19:26:39.317Z,-0.34
2023-01-28T19:29:10.796Z,-0.34
2023-01-28T19:31:39.358Z,-0.29
2023-01-28T19:34:07.291Z,-0.31
2023-01-28T19:36:34.955Z,-0.31
2023-01-28T19:39:04.825Z,-0.42
2023-01-28T19:41:35.399Z,-0.43
2023-01-28T19:44:03.220Z,-0.46
2023-01-28T19:46:30.514Z,-0.46
2023-01-28T19:48:57.763Z,-0.47
2023-01-28T19:51:25.320Z,-0.42
2023-01-28T19:53:54.123Z,-0.36
2023-01-28T19:56:30.793Z,-0.39
2023-01-28T19:58:57.849Z,-0.36
2023-01-28T20:01:30.270Z,-0.45
2023-01-28T20:04:00.312Z,-0.49
2023-01-28T20:06:29.982Z,-0.50
2023-01-28T20:09:01.913Z,-0.53
2023-01-28T20:11:29.100Z,-0.57
2023-01-28T20:13:56.202Z,-0.58
2023-01-28T20:16:30.575Z,-0.62
2023-01-28T20:19:05.711Z,-0.56
2023-01-28T20:21:34.644Z,-0.67
2023-01-28T20:24:02.999Z,-0.62
2023-01-28T20:26:39.606Z,-0.60
2023-01-28T20:29:09.688Z,-0.64
2023-01-28T20:31:38.485Z,-0.61
2023-01-28T20:34:06.847Z,-0.67
2023-01-28T20:36:33.711Z,-0.63
2023-01-28T20:39:00.541Z,-0.67
2023-01-28T20:41:27.672Z,-0.70
2023-01-28T20:43:55.536Z,-0.71
2023-01-28T20:49:03.588Z,-0.66
2023-01-28T20:51:35.521Z,-0.82
2023-01-28T20:54:02.771Z,-0.81
2023-01-28T20:56:31.292Z,-0.79
2023-01-28T20:59:05.931Z,-0.73
2023-01-28T21:01:35.574Z,-0.68
2023-01-28T21:04:03.259Z,-0.74
2023-01-28T21:06:30.181Z,-0.83
2023-01-28T21:08:57.373Z,-0.71
2023-01-28T21:11:26.328Z,-0.75
2023-01-28T21:13:53.967Z,-0.76
2023-01-28T21:16:21.012Z,-0.81
2023-01-28T21:18:47.790Z,-0.82
2023-01-28T21:21:19.199Z,-0.81
2023-01-28T21:23:46.230Z,-0.91
2023-01-28T21:26:13.086Z,-0.74
2023-01-28T21:28:39.772Z,-0.73
2023-01-28T21:31:25.471Z,-0.86
2023-01-28T21:33:57.832Z,-0.88
2023-01-28T21:36:25.611Z,-0.74
2023-01-28T21:38:57.309Z,-0.74
2023-01-28T21:41:25.456Z,-0.81
2023-01-28T21:43:53.944Z,-0.88
2023-01-28T21:46:22.270Z,-0.92
2023-01-28T21:48:49.189Z,-0.82
2023-01-28T21:51:34.286Z,-0.86
2023-01-28T21:54:01.140Z,-0.89
2023-01-28T21:56:33.689Z,-0.83
2023-01-28T21:59:19.283Z,-0.84
2023-01-28T22:01:46.398Z,-0.71
2023-01-28T22:04:13.874Z,-0.87
2023-01-28T22:06:42.402Z,-0.87
2023-01-28T22:09:14.192Z,-0.80
2023-01-28T22:11:43.448Z,-0.94
2023-01-28T22:14:10.843Z,-0.88
2023-01-28T22:16:37.847Z,-0.82
2023-01-28T22:19:04.869Z,-0.72
2023-01-28T22:21:31.753Z,-0.70
2023-01-28T22:23:58.548Z,-0.84
2023-01-28T22:26:25.428Z,-0.69
2023-01-28T22:28:52.194Z,-0.73
2023-01-28T22:31:18.974Z,-0.73
2023-01-28T22:33:46.333Z,-0.77
2023-01-28T22:36:15.880Z,-0.82
2023-01-28T22:38:44.453Z,-0.90
2023-01-28T22:41:19.363Z,-0.82
2023-01-28T22:43:47.235Z,-0.86
2023-01-28T22:46:14.821Z,-0.90
2023-01-28T22:48:41.825Z,-0.82
2023-01-28T22:51:18.370Z,-0.80
2023-01-28T22:53:47.267Z,-0.89
2023-01-28T22:56:15.416Z,-0.84
2023-01-28T22:58:42.443Z,-0.85
2023-01-28T23:01:09.435Z,-0.93
2023-01-28T23:06:04.931Z,-0.97
2023-01-28T23:08:33.606Z,-0.98
2023-01-28T23:11:02.756Z,-1.00
2023-01-28T23:16:20.917Z,-1.03
2023-01-28T23:19:06.094Z,-0.98
2023-01-28T23:21:38.179Z,-1.06
2023-01-28T23:24:21.560Z,-0.96
2023-01-28T23:26:56.513Z,-1.00
2023-01-28T23:29:25.440Z,-1.08
2023-01-28T23:32:01.267Z,-1.13
2023-01-28T23:34:38.274Z,-1.09
2023-01-28T23:37:07.250Z,-1.15
2023-01-28T23:39:34.360Z,-1.10
2023-01-28T23:42:18.450Z,-1.10
2023-01-28T23:44:45.180Z,-1.10
2023-01-28T23:47:12.043Z,-1.13
2023-01-28T23:49:39.493Z,-1.13
2023-01-28T23:52:07.980Z,-1.13
2023-01-28T23:54:34.755Z,-1.14
2023-01-28T23:57:02.908Z,-1.13
2023-01-28T23:59:29.756Z,-1.17
